Terminal Aerodrome Forecast
Issued by NWS Wichita, KS

Home | Current Version | Previous Version | Text Only | Print | Product List | Glossary Off
Versions: 1 2 3 4 5 6 7 8 9 10 11 12 13 14 15 16 17 18 19 20 21 22 23 24 25 26 27 28

387
FTUS43 KICT 240812 AAA
TAFICT
TAF AMD
KICT 240812Z 2408/2506 18018G26KT P6SM BKN060
     FM241300 18021G32KT P6SM SCT015
     FM241600 18023G33KT P6SM SCT030
     FM241800 16016G23KT P6SM VCSH SCT045
     FM250000 15007KT P6SM BKN200
     FM250200 35020G28KT P6SM SCT025=

USA.gov is the U.S. government's official web portal to all federal, state and local government web resources and services.